createdAt,value
2022-10-28T00:01:23.523Z,7.82
2022-10-28T00:03:54.942Z,6.25
2022-10-28T00:06:25.012Z,5.85
2022-10-28T00:08:53.436Z,6.55
2022-10-28T00:11:24.162Z,7.53
2022-10-28T00:13:54.708Z,6.97
2022-10-28T00:16:25.427Z,7.05
2022-10-28T00:18:55.358Z,5.67
2022-10-28T00:21:26.051Z,4.60
2022-10-28T00:23:54.456Z,6.47
2022-10-28T00:26:24.446Z,4.88
2022-10-28T00:28:54.842Z,6.03
2022-10-28T00:31:25.164Z,7.18
2022-10-28T00:33:55.335Z,4.15
2022-10-28T00:36:25.034Z,7.90
2022-10-28T00:38:54.841Z,6.88
2022-10-28T00:41:24.894Z,6.63
2022-10-28T00:43:54.773Z,5.82
2022-10-28T00:46:29.521Z,7.43
2022-10-28T00:49:03.871Z,5.88
2022-10-28T00:51:34.587Z,6.65
2022-10-28T00:54:04.325Z,5.17
2022-10-28T00:56:35.480Z,5.82
2022-10-28T00:59:08.723Z,4.90
2022-10-28T01:01:37.131Z,7.70
2022-10-28T01:04:07.700Z,5.75
2022-10-28T01:06:36.233Z,6.20
2022-10-28T01:09:04.488Z,6.07
2022-10-28T01:11:54.822Z,4.75
2022-10-28T01:14:33.410Z,6.53
2022-10-28T01:17:31.611Z,5.75
2022-10-28T01:20:26.448Z,4.53
2022-10-28T01:22:59.860Z,6.82
2022-10-28T01:26:14.746Z,5.22
2022-10-28T01:29:02.025Z,3.67
2022-10-28T01:31:37.669Z,6.88
2022-10-28T01:34:14.414Z,5.28
2022-10-28T01:36:52.198Z,6.10
2022-10-28T01:39:29.487Z,5.60
2022-10-28T01:42:06.750Z,7.93
2022-10-28T01:44:44.678Z,6.20
2022-10-28T01:47:19.025Z,4.75
2022-10-28T01:49:52.935Z,4.40
2022-10-28T01:52:25.988Z,4.78
2022-10-28T01:54:58.823Z,4.03
2022-10-28T01:57:30.868Z,7.22
2022-10-28T02:00:00.526Z,6.00
2022-10-28T02:02:33.874Z,4.60
2022-10-28T02:05:07.497Z,5.07
2022-10-28T02:07:35.797Z,5.55
2022-10-28T02:10:14.738Z,7.65
2022-10-28T02:12:44.180Z,5.38
2022-10-28T02:15:34.410Z,4.20
2022-10-28T02:18:19.602Z,7.47
2022-10-28T02:20:53.371Z,5.22
2022-10-28T02:23:33.962Z,5.05
2022-10-28T02:26:09.243Z,4.57
2022-10-28T02:28:42.419Z,4.13
2022-10-28T02:31:21.873Z,4.53
2022-10-28T02:33:55.609Z,3.75
2022-10-28T02:36:25.659Z,3.67
2022-10-28T02:38:57.130Z,3.78
2022-10-28T02:41:29.374Z,6.45
2022-10-28T02:44:02.516Z,6.75
2022-10-28T02:46:33.668Z,5.40
2022-10-28T02:49:06.425Z,5.45
2022-10-28T02:51:38.213Z,3.50
2022-10-28T02:54:10.354Z,6.82
2022-10-28T02:56:41.549Z,6.70
2022-10-28T02:59:12.224Z,6.25
2022-10-28T03:01:41.282Z,5.17
2022-10-28T03:04:11.154Z,5.30
2022-10-28T03:06:39.508Z,3.63
2022-10-28T03:09:07.760Z,8.45
2022-10-28T03:11:35.996Z,5.40
2022-10-28T03:14:04.484Z,4.30
2022-10-28T03:16:32.800Z,6.90
2022-10-28T03:19:01.226Z,5.28
2022-10-28T03:21:30.847Z,3.78
2022-10-28T03:23:59.067Z,4.95
2022-10-28T03:26:27.403Z,5.53
2022-10-28T03:28:55.682Z,5.13
2022-10-28T03:31:23.941Z,6.68
2022-10-28T03:33:52.310Z,5.05
2022-10-28T03:36:20.603Z,4.45
2022-10-28T03:38:50.339Z,7.53
2022-10-28T03:41:18.609Z,7.50
2022-10-28T03:43:46.985Z,6.13
2022-10-28T03:46:15.212Z,7.47
2022-10-28T03:48:43.420Z,5.72
2022-10-28T03:51:11.895Z,6.50
2022-10-28T03:53:40.178Z,3.88
2022-10-28T03:56:10.346Z,6.25
2022-10-28T03:58:41.063Z,6.53
2022-10-28T04:01:10.035Z,5.75
2022-10-28T04:03:38.597Z,5.97
2022-10-28T04:06:07.193Z,5.78
2022-10-28T04:08:35.461Z,5.15
2022-10-28T04:11:04.253Z,4.20
2022-10-28T04:13:33.898Z,4.90
2022-10-28T04:16:02.626Z,5.80
2022-10-28T04:18:30.920Z,3.90
2022-10-28T04:20:59.563Z,3.97
2022-10-28T04:23:27.805Z,4.05
2022-10-28T04:25:56.284Z,5.13
2022-10-28T04:28:25.393Z,4.22
2022-10-28T04:30:55.022Z,4.40
2022-10-28T04:33:23.258Z,4.13
2022-10-28T04:35:51.581Z,4.68
2022-10-28T04:38:19.829Z,3.92
2022-10-28T04:40:49.281Z,7.65
2022-10-28T04:43:17.713Z,6.10
2022-10-28T04:45:46.887Z,5.55
2022-10-28T04:48:16.520Z,5.60
2022-10-28T04:50:45.337Z,6.40
2022-10-28T04:53:14.232Z,4.05
2022-10-28T04:55:42.441Z,3.25
2022-10-28T04:58:11.668Z,6.70
2022-10-28T05:00:39.855Z,6.95
2022-10-28T05:03:08.129Z,8.70
2022-10-28T05:05:37.728Z,10.05
2022-10-28T05:08:06.452Z,10.68
2022-10-28T05:10:34.891Z,7.40
2022-10-28T05:13:03.317Z,10.55
2022-10-28T05:15:32.143Z,5.88
2022-10-28T05:18:00.582Z,6.82
2022-10-28T05:20:28.916Z,6.10
2022-10-28T05:22:58.653Z,5.35
2022-10-28T05:25:27.548Z,9.02
2022-10-28T05:27:59.399Z,5.03
2022-10-28T05:30:28.316Z,8.57
2022-10-28T05:33:02.544Z,8.80
2022-10-28T05:35:31.222Z,7.65
2022-10-28T05:38:01.208Z,8.98
2022-10-28T05:40:29.680Z,7.75
2022-10-28T05:42:57.892Z,6.97
2022-10-28T05:45:26.282Z,7.40
2022-10-28T05:47:54.989Z,8.02
2022-10-28T05:50:23.773Z,8.20
2022-10-28T05:52:53.898Z,7.70
2022-10-28T05:55:25.269Z,5.95
2022-10-28T05:57:53.939Z,8.40
2022-10-28T06:00:23.801Z,6.22
2022-10-28T06:02:52.659Z,6.93
2022-10-28T06:05:21.332Z,8.50
2022-10-28T06:07:49.549Z,7.65
2022-10-28T06:10:18.029Z,7.30
2022-10-28T06:12:46.116Z,8.68
2022-10-28T06:15:14.536Z,7.55
2022-10-28T06:17:42.756Z,8.27
2022-10-28T06:20:11.549Z,9.13
2022-10-28T06:22:47.157Z,7.00
2022-10-28T06:25:15.563Z,6.78
2022-10-28T06:27:44.126Z,6.82
2022-10-28T06:30:14.433Z,10.40
2022-10-28T06:32:43.053Z,8.63
2022-10-28T06:35:11.359Z,7.00
2022-10-28T06:37:39.558Z,6.07
2022-10-28T06:40:09.052Z,7.93
2022-10-28T06:42:37.275Z,7.65
2022-10-28T06:45:06.836Z,7.68
2022-10-28T06:47:41.349Z,8.07
2022-10-28T06:50:10.632Z,7.10
2022-10-28T06:52:39.820Z,8.65
2022-10-28T06:55:08.669Z,5.60
2022-10-28T06:57:36.881Z,6.85
2022-10-28T07:00:06.047Z,7.18
2022-10-28T07:02:34.358Z,9.30
2022-10-28T07:05:04.064Z,8.07
2022-10-28T07:07:32.387Z,7.75
2022-10-28T07:10:00.571Z,7.28
2022-10-28T07:12:28.835Z,9.05
2022-10-28T07:14:57.221Z,10.38
2022-10-28T07:17:25.555Z,9.13
2022-10-28T07:19:53.730Z,7.15
2022-10-28T07:22:25.821Z,5.05
2022-10-28T07:24:54.124Z,6.45
2022-10-28T07:27:22.329Z,9.15
2022-10-28T07:29:50.549Z,9.60
2022-10-28T07:32:18.781Z,8.90
2022-10-28T07:34:47.156Z,4.70
2022-10-28T07:37:15.358Z,9.10
2022-10-28T07:39:45.004Z,7.28
2022-10-28T07:42:13.134Z,6.28
2022-10-28T07:44:41.445Z,7.75
2022-10-28T07:47:09.654Z,5.57
2022-10-28T07:49:38.055Z,5.75
2022-10-28T07:52:06.424Z,6.50
2022-10-28T07:54:34.783Z,5.95
2022-10-28T07:57:04.425Z,7.80
2022-10-28T07:59:32.828Z,6.95
2022-10-28T08:02:01.152Z,8.20
2022-10-28T08:04:30.984Z,6.25
2022-10-28T08:06:59.498Z,5.15
2022-10-28T08:09:27.867Z,3.92
2022-10-28T08:11:57.715Z,5.00
2022-10-28T08:14:27.340Z,4.10
2022-10-28T08:16:55.751Z,4.43
2022-10-28T08:19:24.090Z,4.65
2022-10-28T08:21:52.359Z,6.85
2022-10-28T08:24:20.971Z,6.65
2022-10-28T08:26:49.346Z,6.43
2022-10-28T08:29:17.728Z,4.68
2022-10-28T08:31:47.796Z,5.97
2022-10-28T08:34:16.218Z,5.32
2022-10-28T08:36:44.472Z,7.30
2022-10-28T08:39:12.868Z,6.53
2022-10-28T08:41:46.053Z,6.72
2022-10-28T08:44:47.503Z,5.60
2022-10-28T08:47:27.732Z,6.75
2022-10-28T08:50:01.422Z,3.88
2022-10-28T08:52:34.429Z,5.00
2022-10-28T08:55:05.744Z,6.68
2022-10-28T08:57:42.521Z,4.90
2022-10-28T09:00:20.603Z,7.20
2022-10-28T09:03:09.404Z,4.22
2022-10-28T09:05:38.263Z,4.47
2022-10-28T09:08:07.891Z,4.78
2022-10-28T09:10:52.592Z,5.57
2022-10-28T09:13:30.994Z,4.88
2022-10-28T09:16:07.916Z,6.35
2022-10-28T09:18:52.530Z,6.20
2022-10-28T09:21:25.872Z,6.35
2022-10-28T09:23:59.245Z,3.88
2022-10-28T09:26:40.876Z,7.22
2022-10-28T09:29:26.434Z,5.63
2022-10-28T09:32:00.090Z,8.15
2022-10-28T09:34:38.533Z,6.40
2022-10-28T09:37:15.477Z,5.15
2022-10-28T09:39:46.959Z,4.53
2022-10-28T09:42:20.325Z,4.88
2022-10-28T09:44:52.381Z,6.00
2022-10-28T09:47:23.930Z,4.55
2022-10-28T09:52:28.199Z,5.03
2022-10-28T09:54:58.655Z,4.85
2022-10-28T09:57:33.336Z,6.40
2022-10-28T10:00:01.933Z,5.28
2022-10-28T10:02:32.178Z,4.88
2022-10-28T10:05:03.901Z,3.80
2022-10-28T10:10:09.085Z,4.35
2022-10-28T10:12:38.693Z,7.05
2022-10-28T10:15:11.839Z,3.67
2022-10-28T10:17:45.009Z,3.95
2022-10-28T10:20:16.252Z,6.85
2022-10-28T10:22:46.952Z,3.25
2022-10-28T10:25:33.377Z,8.63
2022-10-28T10:28:03.720Z,6.80
2022-10-28T10:30:34.259Z,3.40
2022-10-28T10:33:04.148Z,4.85
2022-10-28T10:35:35.992Z,5.82
2022-10-28T10:38:07.209Z,7.05
2022-10-28T10:40:37.059Z,6.45
2022-10-28T10:43:24.900Z,5.00
2022-10-28T10:46:03.255Z,10.65
2022-10-28T10:48:34.501Z,4.85
2022-10-28T10:51:09.426Z,5.53
2022-10-28T10:53:39.068Z,6.80
2022-10-28T10:56:10.797Z,5.78
2022-10-28T11:01:09.815Z,6.53
2022-10-28T11:03:41.144Z,7.68
2022-10-28T11:06:24.230Z,4.85
2022-10-28T11:08:59.306Z,4.88
2022-10-28T11:11:34.758Z,5.70
2022-10-28T11:14:08.876Z,3.55
2022-10-28T11:16:48.920Z,6.88
2022-10-28T11:19:22.021Z,4.20
2022-10-28T11:22:03.706Z,8.30
2022-10-28T11:24:49.703Z,7.57
2022-10-28T11:27:30.108Z,2.92
2022-10-28T11:30:01.297Z,4.75
2022-10-28T11:33:01.355Z,3.90
2022-10-28T11:35:57.610Z,7.03
2022-10-28T11:38:45.984Z,6.45
2022-10-28T11:41:31.516Z,5.75
2022-10-28T11:44:05.038Z,7.32
2022-10-28T11:46:44.622Z,4.25
2022-10-28T11:49:38.082Z,3.92
2022-10-28T11:52:20.144Z,6.55
2022-10-28T11:55:01.452Z,6.20
2022-10-28T11:57:39.885Z,5.43
2022-10-28T12:00:26.362Z,7.78
2022-10-28T12:03:06.155Z,4.90
2022-10-28T12:05:44.928Z,5.82
2022-10-28T12:08:27.633Z,5.68
2022-10-28T12:11:09.127Z,5.90
2022-10-28T12:13:48.456Z,4.55
2022-10-28T12:16:25.901Z,4.32
2022-10-28T12:18:59.181Z,2.65
2022-10-28T12:24:06.538Z,4.50
2022-10-28T12:26:41.538Z,6.18
2022-10-28T12:29:14.920Z,3.95
2022-10-28T12:31:47.087Z,5.40
2022-10-28T12:34:21.125Z,3.78
2022-10-28T12:36:53.466Z,4.32
2022-10-28T12:39:26.703Z,7.25
2022-10-28T12:42:01.832Z,3.95
2022-10-28T12:44:31.052Z,5.65
2022-10-28T12:47:07.955Z,7.95
2022-10-28T12:49:45.459Z,4.55
2022-10-28T12:52:26.008Z,3.45
2022-10-28T12:55:01.280Z,5.15
2022-10-28T12:57:35.446Z,3.78
2022-10-28T13:00:07.629Z,4.07
2022-10-28T13:02:42.538Z,3.45
2022-10-28T13:05:20.152Z,6.20
2022-10-28T13:08:24.955Z,3.88
2022-10-28T13:10:59.057Z,3.30
2022-10-28T13:13:43.065Z,5.80
2022-10-28T13:16:24.036Z,5.78
2022-10-28T13:19:16.071Z,3.90
2022-10-28T13:22:05.423Z,6.05
2022-10-28T13:24:41.453Z,2.95
2022-10-28T13:27:13.487Z,4.20
2022-10-28T13:29:45.093Z,2.83
2022-10-28T13:32:34.185Z,3.78
2022-10-28T13:35:16.242Z,3.50
2022-10-28T13:37:48.734Z,3.67
2022-10-28T13:40:44.438Z,3.05
2022-10-28T13:43:20.329Z,4.65
2022-10-28T13:45:53.216Z,2.42
2022-10-28T13:48:54.901Z,4.90
2022-10-28T13:51:46.646Z,5.25
2022-10-28T13:54:31.568Z,4.22
2022-10-28T13:57:10.215Z,5.13
2022-10-28T13:59:54.608Z,3.60
2022-10-28T14:02:34.934Z,4.18
2022-10-28T14:05:08.157Z,5.78
2022-10-28T14:07:38.218Z,6.00
2022-10-28T14:10:23.379Z,4.78
2022-10-28T14:12:55.191Z,4.63
2022-10-28T14:15:27.717Z,4.60
2022-10-28T14:18:15.871Z,5.40
2022-10-28T14:21:00.795Z,5.05
2022-10-28T14:24:09.405Z,4.05
2022-10-28T14:27:22.982Z,4.97
2022-10-28T14:30:05.256Z,7.47
2022-10-28T14:32:57.247Z,5.25
2022-10-28T14:35:34.249Z,6.75
2022-10-28T14:38:37.592Z,10.02
2022-10-28T14:41:26.929Z,5.00
2022-10-28T14:44:06.870Z,6.45
2022-10-28T14:46:47.714Z,6.50
2022-10-28T14:49:21.210Z,6.63
2022-10-28T14:51:51.632Z,5.28
2022-10-28T14:54:30.863Z,4.30
2022-10-28T14:56:59.075Z,7.35
2022-10-28T14:59:28.798Z,5.35
2022-10-28T15:02:11.538Z,5.95
2022-10-28T15:04:41.983Z,6.47
2022-10-28T15:07:15.272Z,7.00
2022-10-28T15:09:44.672Z,6.57
2022-10-28T15:12:16.768Z,5.63
2022-10-28T15:14:47.958Z,117.93
2022-10-28T15:17:18.442Z,133.38
2022-10-28T15:19:48.118Z,104.05
2022-10-28T15:22:23.170Z,146.32
2022-10-28T15:25:00.033Z,114.75
2022-10-28T15:27:30.545Z,128.13
2022-10-28T15:29:59.170Z,104.13
2022-10-28T15:32:30.074Z,76.78
2022-10-28T15:34:58.893Z,70.30
2022-10-28T15:37:30.936Z,49.15
2022-10-28T15:40:23.077Z,44.63
2022-10-28T15:42:54.972Z,73.65
2022-10-28T15:45:27.052Z,138.70
2022-10-28T15:47:57.100Z,109.55
2022-10-28T15:50:29.679Z,110.25
2022-10-28T15:53:32.561Z,95.15
2022-10-28T15:56:21.195Z,58.53
2022-10-28T15:59:04.469Z,43.28
2022-10-28T16:01:39.442Z,34.88
2022-10-28T16:04:28.629Z,91.43
2022-10-28T16:06:58.523Z,131.35
2022-10-28T16:09:32.200Z,316.02
2022-10-28T16:12:03.761Z,198.90
2022-10-28T16:14:37.508Z,220.73
2022-10-28T16:17:17.492Z,111.15
2022-10-28T16:19:51.690Z,96.25
2022-10-28T16:22:20.751Z,77.38
2022-10-28T16:24:52.005Z,69.35
2022-10-28T16:27:21.974Z,64.65
2022-10-28T16:29:50.897Z,49.55
2022-10-28T16:32:23.801Z,51.95
2022-10-28T16:34:52.126Z,37.78
2022-10-28T16:37:23.753Z,38.47
2022-10-28T16:42:22.918Z,26.83
2022-10-28T16:44:51.993Z,24.40
2022-10-28T16:47:22.515Z,23.08
2022-10-28T16:49:54.362Z,22.63
2022-10-28T16:52:28.134Z,17.60
2022-10-28T16:54:58.703Z,20.27
2022-10-28T16:57:27.860Z,16.42
2022-10-28T16:59:56.681Z,16.58
2022-10-28T17:02:28.579Z,16.75
2022-10-28T17:04:57.282Z,14.57
2022-10-28T17:07:25.883Z,14.45
2022-10-28T17:09:54.167Z,15.48
2022-10-28T17:12:25.872Z,13.20
2022-10-28T17:14:54.336Z,12.30
2022-10-28T17:17:22.527Z,13.88
2022-10-28T17:19:51.126Z,14.43
2022-10-28T17:22:19.576Z,13.68
2022-10-28T17:24:47.853Z,11.23
2022-10-28T17:27:16.485Z,13.80
2022-10-28T17:29:46.634Z,12.32
2022-10-28T17:32:14.952Z,12.85
2022-10-28T17:34:43.138Z,13.90
2022-10-28T17:37:11.729Z,10.85
2022-10-28T17:39:40.049Z,12.00
2022-10-28T17:42:08.314Z,12.45
2022-10-28T17:44:36.746Z,12.20
2022-10-28T17:47:06.473Z,10.75
2022-10-28T17:49:36.545Z,9.43
2022-10-28T17:52:04.938Z,11.25
2022-10-28T17:54:33.175Z,11.93
2022-10-28T17:57:01.537Z,9.85
2022-10-28T17:59:29.766Z,13.63
2022-10-28T18:01:58.201Z,10.90
2022-10-28T18:04:28.181Z,9.65
2022-10-28T18:06:58.338Z,10.05
2022-10-28T18:09:27.762Z,12.98
2022-10-28T18:11:56.009Z,10.57
2022-10-28T18:14:24.322Z,11.00
2022-10-28T18:16:52.586Z,10.32
2022-10-28T18:19:20.996Z,9.43
2022-10-28T18:21:50.594Z,12.07
2022-10-28T18:24:20.608Z,9.57
2022-10-28T18:26:51.663Z,10.52
2022-10-28T18:29:19.894Z,11.23
2022-10-28T18:31:48.373Z,8.20
2022-10-28T18:34:16.766Z,10.60
2022-10-28T18:36:45.202Z,10.82
2022-10-28T18:39:14.833Z,10.07
2022-10-28T18:41:43.819Z,106.95
2022-10-28T18:44:14.326Z,190.20
2022-10-28T18:46:45.140Z,198.32
2022-10-28T18:49:13.518Z,258.70
2022-10-28T18:51:41.719Z,233.57
2022-10-28T18:54:10.012Z,207.73
2022-10-28T18:56:40.868Z,183.80
2022-10-28T18:59:10.992Z,156.57
2022-10-28T19:01:40.852Z,228.27
2022-10-28T19:04:09.217Z,229.25
2022-10-28T19:06:41.340Z,233.70
2022-10-28T19:09:09.677Z,268.65
2022-10-28T19:11:39.361Z,286.88
2022-10-28T19:14:08.512Z,305.33
2022-10-28T19:16:36.857Z,268.23
2022-10-28T19:19:06.523Z,227.45
2022-10-28T19:21:35.348Z,411.00
2022-10-28T19:24:05.290Z,273.95
2022-10-28T19:26:34.987Z,219.52
2022-10-28T19:29:05.607Z,257.45
2022-10-28T19:31:37.116Z,335.55
2022-10-28T19:34:05.669Z,258.20
2022-10-28T19:36:33.933Z,225.35
2022-10-28T19:39:03.957Z,203.85
2022-10-28T19:41:32.546Z,138.73
2022-10-28T19:44:02.391Z,128.88
2022-10-28T19:46:35.288Z,130.23
2022-10-28T19:49:05.763Z,115.53
2022-10-28T19:51:35.713Z,115.30
2022-10-28T19:54:05.913Z,98.05
2022-10-28T19:56:35.735Z,91.22
2022-10-28T19:59:05.423Z,77.78
2022-10-28T20:01:37.458Z,73.20
2022-10-28T20:04:06.780Z,70.60
2022-10-28T20:06:36.660Z,73.47
2022-10-28T20:09:05.440Z,65.90
2022-10-28T20:11:35.353Z,62.97
2022-10-28T20:14:05.608Z,53.13
2022-10-28T20:16:36.089Z,44.47
2022-10-28T20:19:04.436Z,44.72
2022-10-28T20:21:34.394Z,43.17
2022-10-28T20:24:05.445Z,38.70
2022-10-28T20:26:36.542Z,34.38
2022-10-28T20:29:06.775Z,36.08
2022-10-28T20:31:38.481Z,35.85
2022-10-28T20:34:07.321Z,35.55
2022-10-28T20:36:37.351Z,27.25
2022-10-28T20:39:08.912Z,27.77
2022-10-28T20:44:06.741Z,27.63
2022-10-28T20:46:36.799Z,21.83
2022-10-28T20:49:06.395Z,20.70
2022-10-28T20:51:35.736Z,19.52
2022-10-28T20:54:04.302Z,20.95
2022-10-28T20:56:34.469Z,19.40
2022-10-28T20:59:02.824Z,20.13
2022-10-28T21:01:33.322Z,19.30
2022-10-28T21:04:06.112Z,18.42
2022-10-28T21:06:34.971Z,14.70
2022-10-28T21:09:05.055Z,16.40
2022-10-28T21:11:33.330Z,12.85
2022-10-28T21:14:03.122Z,13.30
2022-10-28T21:16:31.791Z,13.48
2022-10-28T21:19:02.185Z,11.60
2022-10-28T21:21:31.287Z,12.00
2022-10-28T21:23:59.529Z,10.77
2022-10-28T21:26:27.851Z,12.43
2022-10-28T21:28:56.428Z,14.18
2022-10-28T21:31:25.085Z,8.57
2022-10-28T21:33:53.821Z,10.60
2022-10-28T21:36:24.106Z,11.45
2022-10-28T21:38:55.715Z,10.05
2022-10-28T21:43:54.597Z,12.07
2022-10-28T21:46:23.792Z,10.77
2022-10-28T21:48:52.044Z,11.52
2022-10-28T21:51:20.419Z,10.55
2022-10-28T21:53:50.246Z,9.30
2022-10-28T21:56:20.164Z,10.32
2022-10-28T21:58:49.756Z,9.32
2022-10-28T22:01:19.706Z,10.85
2022-10-28T22:03:48.054Z,8.77
2022-10-28T22:06:16.395Z,10.10
2022-10-28T22:08:44.936Z,8.70
2022-10-28T22:11:16.655Z,8.38
2022-10-28T22:16:15.311Z,7.78
2022-10-28T22:18:44.913Z,7.97
2022-10-28T22:21:15.414Z,7.25
2022-10-28T22:23:44.142Z,7.75
2022-10-28T22:26:16.155Z,7.82
2022-10-28T22:28:44.760Z,10.20
2022-10-28T22:31:15.056Z,8.85
2022-10-28T22:33:43.578Z,8.73
2022-10-28T22:36:14.374Z,9.23
2022-10-28T22:38:42.951Z,10.13
2022-10-28T22:41:16.130Z,8.70
2022-10-28T22:43:46.382Z,9.00
2022-10-28T22:46:15.213Z,8.63
2022-10-28T22:48:43.863Z,5.35
2022-10-28T22:51:12.262Z,7.05
2022-10-28T22:53:41.437Z,8.80
2022-10-28T22:56:13.232Z,5.57
2022-10-28T22:58:42.876Z,7.53
2022-10-28T23:01:13.163Z,6.97
2022-10-28T23:03:42.937Z,8.73
2022-10-28T23:06:12.825Z,7.55
2022-10-28T23:08:42.975Z,8.45
2022-10-28T23:11:12.028Z,9.07
2022-10-28T23:13:40.305Z,7.43
2022-10-28T23:16:11.623Z,9.45
2022-10-28T23:18:40.114Z,8.00
2022-10-28T23:21:10.697Z,6.75
2022-10-28T23:23:39.007Z,8.88
2022-10-28T23:26:08.030Z,6.32
2022-10-28T23:28:36.249Z,7.05
2022-10-28T23:31:06.017Z,7.18
2022-10-28T23:33:36.175Z,9.32
2022-10-28T23:36:05.311Z,11.05
2022-10-28T23:38:33.916Z,6.55
2022-10-28T23:41:03.830Z,9.27
2022-10-28T23:43:33.169Z,9.57
2022-10-28T23:46:01.994Z,9.52
2022-10-28T23:48:30.503Z,10.85
2022-10-28T23:51:01.071Z,13.18
2022-10-28T23:53:30.559Z,10.45
2022-10-28T23:55:59.400Z,9.52
2022-10-28T23:58:27.641Z,9.68
